createdAt,value
2023-02-22T00:01:28.430Z,19.93
2023-02-22T00:04:35.681Z,16.43
2023-02-22T00:07:44.791Z,16.57
2023-02-22T00:10:52.658Z,13.07
2023-02-22T00:14:00.231Z,17.23
2023-02-22T00:17:06.538Z,13.50
2023-02-22T00:20:17.337Z,12.37
2023-02-22T00:23:25.518Z,21.63
2023-02-22T00:26:35.147Z,9.57
2023-02-22T00:29:47.520Z,10.87
2023-02-22T00:32:56.043Z,15.77
2023-02-22T00:36:02.860Z,11.37
2023-02-22T00:39:09.641Z,8.80
2023-02-22T00:42:16.231Z,7.87
2023-02-22T00:45:27.290Z,11.87
2023-02-22T00:48:33.482Z,11.87
2023-02-22T00:51:40.358Z,29.37
2023-02-22T00:54:46.850Z,15.13
2023-02-22T00:57:53.308Z,6.90
2023-02-22T01:01:01.357Z,7.13
2023-02-22T01:04:07.821Z,19.40
2023-02-22T01:07:14.477Z,5.67
2023-02-22T01:10:22.976Z,7.07
2023-02-22T01:13:29.449Z,8.53
2023-02-22T01:16:37.386Z,4.70
2023-02-22T01:19:43.957Z,9.63
2023-02-22T01:22:53.353Z,6.07
2023-02-22T01:25:59.981Z,11.83
2023-02-22T01:29:06.285Z,7.10
2023-02-22T01:32:14.042Z,20.10
2023-02-22T01:35:24.516Z,21.70
2023-02-22T01:38:31.089Z,11.97
2023-02-22T01:41:37.384Z,10.93
2023-02-22T01:44:43.788Z,13.77
2023-02-22T01:47:51.361Z,12.57
2023-02-22T01:51:01.020Z,10.70
2023-02-22T01:54:13.824Z,8.50
2023-02-22T01:57:24.209Z,10.90
2023-02-22T02:00:31.116Z,15.80
2023-02-22T02:03:41.034Z,12.57
2023-02-22T02:06:48.476Z,12.73
2023-02-22T02:09:58.841Z,9.40
2023-02-22T02:13:05.230Z,6.13
2023-02-22T02:16:11.930Z,7.87
2023-02-22T02:19:29.581Z,7.77
2023-02-22T02:22:48.390Z,9.87
2023-02-22T02:26:27.641Z,12.00
2023-02-22T02:30:13.766Z,10.83
2023-02-22T02:33:24.928Z,8.87
2023-02-22T02:36:36.173Z,9.70
2023-02-22T02:39:51.259Z,9.70
2023-02-22T02:43:04.089Z,12.20
2023-02-22T02:46:15.952Z,11.97
2023-02-22T02:49:29.805Z,9.33
2023-02-22T02:52:36.861Z,8.07
2023-02-22T02:55:43.134Z,9.27
2023-02-22T02:58:50.941Z,12.80
2023-02-22T03:02:23.948Z,12.30
2023-02-22T03:05:59.701Z,15.27
2023-02-22T03:09:13.892Z,8.00
2023-02-22T03:12:33.183Z,8.63
2023-02-22T03:15:51.490Z,7.90
2023-02-22T03:19:04.918Z,9.97
2023-02-22T03:22:17.541Z,13.17
2023-02-22T03:25:31.616Z,24.47
2023-02-22T03:28:42.390Z,26.47
2023-02-22T03:31:54.587Z,27.73
2023-02-22T03:35:04.330Z,19.57
2023-02-22T03:38:14.836Z,13.53
2023-02-22T03:41:25.334Z,11.77
2023-02-22T03:44:38.121Z,8.90
2023-02-22T03:47:50.436Z,19.37
2023-02-22T03:50:58.604Z,8.83
2023-02-22T03:54:07.206Z,66.90
2023-02-22T03:57:17.937Z,52.70
2023-02-22T04:00:26.192Z,31.70
2023-02-22T04:03:32.630Z,13.77
2023-02-22T04:06:38.728Z,14.97
2023-02-22T04:09:46.899Z,9.07
2023-02-22T04:12:53.173Z,17.47
2023-02-22T04:15:59.633Z,21.43
2023-02-22T04:19:06.427Z,22.63
2023-02-22T04:22:13.051Z,16.53
2023-02-22T04:25:21.382Z,14.60
2023-02-22T04:28:27.765Z,19.50
2023-02-22T04:31:34.208Z,18.87
2023-02-22T04:34:40.512Z,16.20
2023-02-22T04:37:47.044Z,28.30
2023-02-22T04:40:55.771Z,16.07
2023-02-22T04:44:01.884Z,17.43
2023-02-22T04:47:08.514Z,23.93
2023-02-22T04:50:15.725Z,18.90
2023-02-22T04:53:22.350Z,22.63
2023-02-22T04:56:29.929Z,31.33
2023-02-22T04:59:36.586Z,23.87
2023-02-22T05:02:43.197Z,16.50
2023-02-22T05:05:49.299Z,14.83
2023-02-22T05:08:55.707Z,23.97
2023-02-22T05:12:03.449Z,24.50
2023-02-22T05:15:11.011Z,33.83
2023-02-22T05:18:17.687Z,26.10
2023-02-22T05:21:24.182Z,31.77
2023-02-22T05:24:30.481Z,33.83
2023-02-22T05:27:38.437Z,48.67
2023-02-22T05:30:45.521Z,41.27
2023-02-22T05:33:51.812Z,38.07
2023-02-22T05:36:58.079Z,27.20
2023-02-22T05:40:04.762Z,15.30
2023-02-22T05:43:12.272Z,11.70
2023-02-22T05:46:18.619Z,17.07
2023-02-22T05:49:24.787Z,39.47
2023-02-22T05:52:31.328Z,76.53
2023-02-22T05:55:37.701Z,96.33
2023-02-22T05:58:45.402Z,58.07
2023-02-22T06:01:51.847Z,38.37
2023-02-22T06:04:58.354Z,94.97
2023-02-22T06:08:06.379Z,55.23
2023-02-22T06:11:12.869Z,56.33
2023-02-22T06:14:21.039Z,42.70
2023-02-22T06:17:27.594Z,47.90
2023-02-22T06:20:35.676Z,21.90
2023-02-22T06:23:41.944Z,33.33
2023-02-22T06:26:48.327Z,33.40
2023-02-22T06:29:56.000Z,53.33
2023-02-22T06:33:02.721Z,38.77
2023-02-22T06:36:10.753Z,53.00
2023-02-22T06:39:19.095Z,49.67
2023-02-22T06:42:25.742Z,33.27
2023-02-22T06:45:33.346Z,50.50
2023-02-22T06:48:40.516Z,41.30
2023-02-22T06:51:48.039Z,27.73
2023-02-22T06:54:54.743Z,22.93
2023-02-22T06:58:01.529Z,27.70
2023-02-22T07:01:09.150Z,19.80
2023-02-22T07:04:16.058Z,19.30
2023-02-22T07:07:25.330Z,15.63
2023-02-22T07:10:33.558Z,24.27
2023-02-22T07:13:39.795Z,26.37
2023-02-22T07:16:47.579Z,33.47
2023-02-22T07:19:54.300Z,30.77
2023-02-22T07:23:01.473Z,36.10
2023-02-22T07:26:07.830Z,37.50
2023-02-22T07:29:14.254Z,28.03
2023-02-22T07:32:22.139Z,30.10
2023-02-22T07:35:30.918Z,30.43
2023-02-22T07:38:37.213Z,33.83
2023-02-22T07:41:43.337Z,32.43
2023-02-22T07:44:49.417Z,33.97
2023-02-22T07:47:57.651Z,25.43
2023-02-22T07:51:03.809Z,31.13
2023-02-22T07:54:09.766Z,35.63
2023-02-22T07:57:17.013Z,22.50
2023-02-22T08:00:25.918Z,22.67
2023-02-22T08:03:36.832Z,23.97
2023-02-22T08:06:46.404Z,27.10
2023-02-22T08:09:52.860Z,26.90
2023-02-22T08:12:59.616Z,25.23
2023-02-22T08:16:06.469Z,21.27
2023-02-22T08:19:14.295Z,18.70
2023-02-22T08:22:22.041Z,48.20
2023-02-22T08:25:30.774Z,32.03
2023-02-22T08:28:37.550Z,23.13
2023-02-22T08:31:43.886Z,23.07
2023-02-22T08:34:51.669Z,17.73
2023-02-22T08:37:59.987Z,23.17
2023-02-22T08:41:07.049Z,19.07
2023-02-22T08:44:13.487Z,13.93
2023-02-22T08:47:19.913Z,12.77
2023-02-22T08:50:29.386Z,14.77
2023-02-22T08:53:35.798Z,12.70
2023-02-22T08:56:42.264Z,12.07
2023-02-22T08:59:48.510Z,11.60
2023-02-22T09:02:54.756Z,17.87
2023-02-22T09:06:02.412Z,16.97
2023-02-22T09:09:08.385Z,20.20
2023-02-22T09:12:14.862Z,18.67
2023-02-22T09:15:21.103Z,16.77
2023-02-22T09:18:39.134Z,14.03
2023-02-22T09:21:55.643Z,21.57
2023-02-22T09:25:11.231Z,17.43
2023-02-22T09:28:21.436Z,21.97
2023-02-22T09:31:28.070Z,19.57
2023-02-22T09:34:35.549Z,20.53
2023-02-22T09:37:45.703Z,21.47
2023-02-22T09:40:55.361Z,17.60
2023-02-22T09:44:17.833Z,19.30
2023-02-22T09:47:32.663Z,18.63
2023-02-22T09:50:43.921Z,14.03
2023-02-22T09:53:53.245Z,17.77
2023-02-22T09:57:03.676Z,15.73
2023-02-22T10:00:18.186Z,14.83
2023-02-22T10:03:29.936Z,15.33
2023-02-22T10:06:38.134Z,11.73
2023-02-22T10:09:48.729Z,13.50
2023-02-22T10:13:01.482Z,10.13
2023-02-22T10:16:17.010Z,11.50
2023-02-22T10:19:30.916Z,4.63
2023-02-22T10:22:46.603Z,4.60
2023-02-22T10:26:01.543Z,3.57
2023-02-22T10:29:16.563Z,4.77
2023-02-22T10:32:45.668Z,5.90
2023-02-22T10:35:53.911Z,2.37
2023-02-22T10:39:01.546Z,3.83
2023-02-22T10:42:10.293Z,5.43
2023-02-22T10:45:23.748Z,5.97
2023-02-22T10:48:32.990Z,7.13
2023-02-22T10:51:39.842Z,6.03
2023-02-22T10:54:52.003Z,4.00
2023-02-22T10:58:06.302Z,4.70
2023-02-22T11:01:26.374Z,3.83
2023-02-22T11:04:48.534Z,1.93
2023-02-22T11:08:16.068Z,4.67
2023-02-22T11:11:25.511Z,7.33
2023-02-22T11:14:33.214Z,3.53
2023-02-22T11:17:41.234Z,6.80
2023-02-22T11:20:47.580Z,5.03
2023-02-22T11:24:03.651Z,2.90
2023-02-22T11:27:10.378Z,4.07
2023-02-22T11:30:29.200Z,2.83
2023-02-22T11:33:36.334Z,10.53
2023-02-22T11:36:44.435Z,2.17
2023-02-22T11:40:07.509Z,6.70
2023-02-22T11:43:18.274Z,8.70
2023-02-22T11:46:29.280Z,4.97
2023-02-22T11:49:38.401Z,2.27
2023-02-22T11:52:51.968Z,4.00
2023-02-22T11:56:15.314Z,2.70
2023-02-22T11:59:32.567Z,6.03
2023-02-22T12:02:57.290Z,3.30
2023-02-22T12:06:20.330Z,4.30
2023-02-22T12:09:36.974Z,3.40
2023-02-22T12:12:55.696Z,2.87
2023-02-22T12:16:14.431Z,7.83
2023-02-22T12:19:33.232Z,2.90
2023-02-22T12:22:48.712Z,4.20
2023-02-22T12:26:01.590Z,2.60
2023-02-22T12:29:14.734Z,4.40
2023-02-22T12:32:30.040Z,4.00
2023-02-22T12:35:40.479Z,3.30
2023-02-22T12:38:53.254Z,3.13
2023-02-22T12:42:03.695Z,1.97
2023-02-22T12:45:17.006Z,2.60
2023-02-22T12:48:39.944Z,2.77
2023-02-22T12:51:53.820Z,4.63
2023-02-22T12:55:06.093Z,2.83
2023-02-22T12:58:23.265Z,4.43
2023-02-22T13:01:36.259Z,7.77
2023-02-22T13:04:42.753Z,3.47
2023-02-22T13:08:03.808Z,5.07
2023-02-22T13:11:21.410Z,4.70
2023-02-22T13:14:54.885Z,3.90
2023-02-22T13:18:12.043Z,5.37
2023-02-22T13:21:24.429Z,5.20
2023-02-22T13:24:40.756Z,3.87
2023-02-22T13:27:55.067Z,3.23
2023-02-22T13:31:21.345Z,2.57
2023-02-22T13:34:52.324Z,12.13
2023-02-22T13:38:25.358Z,16.53
2023-02-22T13:41:52.402Z,5.63
2023-02-22T13:45:35.257Z,8.03
2023-02-22T13:49:18.620Z,6.93
2023-02-22T13:52:27.786Z,4.43
2023-02-22T13:55:37.613Z,4.87
2023-02-22T13:59:04.470Z,7.63
2023-02-22T14:02:35.613Z,8.67
2023-02-22T14:05:51.177Z,13.30
2023-02-22T14:08:58.900Z,9.37
2023-02-22T14:12:05.926Z,13.37
2023-02-22T14:15:29.739Z,15.00
2023-02-22T14:18:39.135Z,6.97
2023-02-22T14:22:02.410Z,16.20
2023-02-22T14:25:32.642Z,7.33
2023-02-22T14:28:51.877Z,16.03
2023-02-22T14:32:05.201Z,12.97
2023-02-22T14:35:26.581Z,11.73
2023-02-22T14:38:35.372Z,13.67
2023-02-22T14:41:47.739Z,9.70
2023-02-22T14:45:02.720Z,11.07
2023-02-22T14:48:20.479Z,10.37
2023-02-22T14:51:29.793Z,15.00
2023-02-22T14:54:46.434Z,14.03
2023-02-22T14:58:01.856Z,10.80
2023-02-22T15:01:28.956Z,17.00
2023-02-22T15:04:39.130Z,14.30
2023-02-22T15:07:54.362Z,11.97
2023-02-22T15:11:02.399Z,21.67
2023-02-22T15:14:25.698Z,24.37
2023-02-22T15:17:32.149Z,21.57
2023-02-22T15:20:39.686Z,21.70
2023-02-22T15:23:49.086Z,17.77
2023-02-22T15:27:02.133Z,17.67
2023-02-22T15:30:18.387Z,19.77
2023-02-22T15:33:38.094Z,17.90
2023-02-22T15:36:47.742Z,43.73
2023-02-22T15:39:59.665Z,70.40
2023-02-22T15:43:09.542Z,51.30
2023-02-22T15:46:15.766Z,34.73
2023-02-22T15:49:24.716Z,38.80
2023-02-22T15:52:32.689Z,48.83
2023-02-22T15:55:43.842Z,63.40
2023-02-22T15:58:50.124Z,61.20
2023-02-22T16:01:57.080Z,56.00
2023-02-22T16:05:08.582Z,82.57
2023-02-22T16:08:19.225Z,59.40
2023-02-22T16:11:31.156Z,38.20
2023-02-22T16:14:45.067Z,35.73
2023-02-22T16:18:01.958Z,42.97
2023-02-22T16:21:13.132Z,39.93
2023-02-22T16:24:29.322Z,37.60
2023-02-22T16:27:47.496Z,35.77
2023-02-22T16:30:58.471Z,106.77
2023-02-22T16:34:06.936Z,36.20
2023-02-22T16:37:22.996Z,57.37
2023-02-22T16:40:34.686Z,44.00
2023-02-22T16:43:41.309Z,54.73
2023-02-22T16:46:47.940Z,45.43
2023-02-22T16:49:57.253Z,42.00
2023-02-22T16:53:04.025Z,58.73
2023-02-22T16:56:16.364Z,59.73
2023-02-22T16:59:23.160Z,59.33
2023-02-22T17:02:29.482Z,88.93
2023-02-22T17:05:37.767Z,79.57
2023-02-22T17:08:44.348Z,131.13
2023-02-22T17:11:53.829Z,125.50
2023-02-22T17:15:00.207Z,84.27
2023-02-22T17:18:17.559Z,70.90
2023-02-22T17:21:23.708Z,43.03
2023-02-22T17:24:29.899Z,39.70
2023-02-22T17:27:37.652Z,42.40
2023-02-22T17:30:45.528Z,72.37
2023-02-22T17:33:52.612Z,77.37
2023-02-22T17:36:59.222Z,84.40
2023-02-22T17:40:05.836Z,91.13
2023-02-22T17:43:13.799Z,89.57
2023-02-22T17:46:20.654Z,104.30
2023-02-22T17:49:26.745Z,84.13
2023-02-22T17:52:32.874Z,81.80
2023-02-22T17:55:40.776Z,156.07
2023-02-22T17:58:50.407Z,40.70
2023-02-22T18:01:57.052Z,29.13
2023-02-22T18:05:03.116Z,38.53
2023-02-22T18:08:09.280Z,39.53
2023-02-22T18:11:15.855Z,46.30
2023-02-22T18:14:24.152Z,50.20
2023-02-22T18:17:30.814Z,91.37
2023-02-22T18:20:39.340Z,85.50
2023-02-22T18:23:45.949Z,93.23
2023-02-22T18:26:52.596Z,75.90
2023-02-22T18:30:00.443Z,63.50
2023-02-22T18:33:07.242Z,51.23
2023-02-22T18:36:14.342Z,65.97
2023-02-22T18:39:20.786Z,46.87
2023-02-22T18:42:28.470Z,44.80
2023-02-22T18:45:37.311Z,50.23
2023-02-22T18:48:44.022Z,54.73
2023-02-22T18:51:50.145Z,61.63
2023-02-22T18:54:56.569Z,76.03
2023-02-22T18:58:04.834Z,104.73
2023-02-22T19:01:17.868Z,83.03
2023-02-22T19:04:25.225Z,76.87
2023-02-22T19:07:32.889Z,66.37
2023-02-22T19:10:39.614Z,81.37
2023-02-22T19:13:46.803Z,64.40
2023-02-22T19:16:57.044Z,81.70
2023-02-22T19:20:05.565Z,68.07
2023-02-22T19:23:12.568Z,84.93
2023-02-22T19:26:20.643Z,113.60
2023-02-22T19:29:31.301Z,78.00
2023-02-22T19:32:40.787Z,60.17
2023-02-22T19:35:48.362Z,35.57
2023-02-22T19:38:54.654Z,39.40
2023-02-22T19:42:01.661Z,47.40
2023-02-22T19:45:08.500Z,58.17
2023-02-22T19:48:16.481Z,45.77
2023-02-22T19:51:25.733Z,41.13
2023-02-22T19:54:32.268Z,64.47
2023-02-22T19:57:38.979Z,91.67
2023-02-22T20:00:45.221Z,98.03
2023-02-22T20:03:54.519Z,85.87
2023-02-22T20:07:02.198Z,56.10
2023-02-22T20:10:08.974Z,81.83
2023-02-22T20:13:17.213Z,91.17
2023-02-22T20:16:24.014Z,62.53
2023-02-22T20:19:31.745Z,41.20
2023-02-22T20:22:38.296Z,82.47
2023-02-22T20:25:52.313Z,63.73
2023-02-22T20:29:04.052Z,68.10
2023-02-22T20:32:15.505Z,68.67
2023-02-22T20:35:23.285Z,70.43
2023-02-22T20:38:29.546Z,88.33
2023-02-22T20:41:37.136Z,63.40
2023-02-22T20:44:45.220Z,34.87
2023-02-22T20:47:52.134Z,19.53
2023-02-22T20:51:06.681Z,24.07
2023-02-22T20:54:14.242Z,20.50
2023-02-22T20:57:20.711Z,19.80
2023-02-22T21:00:27.061Z,21.00
2023-02-22T21:03:34.166Z,26.10
2023-02-22T21:06:42.317Z,36.03
2023-02-22T21:09:48.905Z,32.27
2023-02-22T21:12:56.999Z,30.90
2023-02-22T21:16:05.294Z,26.03
2023-02-22T21:19:12.159Z,27.60
2023-02-22T21:22:20.288Z,39.20
2023-02-22T21:25:29.719Z,29.93
2023-02-22T21:28:53.140Z,38.03
2023-02-22T21:32:00.067Z,32.37
2023-02-22T21:35:07.360Z,61.37
2023-02-22T21:38:15.387Z,41.63
2023-02-22T21:41:23.717Z,48.73
2023-02-22T21:44:30.400Z,36.73
2023-02-22T21:47:39.086Z,37.87
2023-02-22T21:50:45.644Z,45.13
2023-02-22T21:53:55.188Z,34.80
2023-02-22T21:57:01.562Z,29.57
2023-02-22T22:00:17.425Z,22.43
2023-02-22T22:03:24.610Z,19.17
2023-02-22T22:06:34.459Z,16.47
2023-02-22T22:09:43.305Z,19.50
2023-02-22T22:12:50.629Z,15.87
2023-02-22T22:15:57.984Z,15.07
2023-02-22T22:19:04.508Z,12.90
2023-02-22T22:22:10.905Z,9.83
2023-02-22T22:25:19.176Z,10.67
2023-02-22T22:28:27.097Z,19.23
2023-02-22T22:31:33.623Z,24.10
2023-02-22T22:34:40.532Z,40.47
2023-02-22T22:37:51.298Z,22.27
2023-02-22T22:41:02.003Z,11.00
2023-02-22T22:44:09.982Z,10.93
2023-02-22T22:47:16.038Z,10.10
2023-02-22T22:50:26.582Z,16.00
2023-02-22T22:53:33.572Z,14.30
2023-02-22T22:56:41.535Z,29.73
2023-02-22T22:59:50.026Z,27.43
2023-02-22T23:02:57.416Z,21.40
2023-02-22T23:06:04.949Z,14.70
2023-02-22T23:09:18.838Z,13.17
2023-02-22T23:12:31.635Z,11.10
2023-02-22T23:15:38.019Z,10.13
2023-02-22T23:18:44.596Z,10.23
2023-02-22T23:21:52.286Z,14.17
2023-02-22T23:25:00.485Z,9.67
2023-02-22T23:28:14.786Z,15.63
2023-02-22T23:31:21.903Z,23.47
2023-02-22T23:34:29.142Z,13.47
2023-02-22T23:37:35.639Z,11.13
2023-02-22T23:40:42.115Z,12.10
2023-02-22T23:43:50.809Z,9.57
2023-02-22T23:46:57.049Z,9.97
2023-02-22T23:50:06.712Z,12.20
2023-02-22T23:53:15.352Z,19.00
2023-02-22T23:56:22.195Z,13.80
2023-02-22T23:59:31.227Z,14.37
